sensor_id;sensor_type;location;lat;lon;timestamp;pressure;altitude;pressure_sealevel;temperature;humidity
32456;BME280;18912;43.270;27.942;2023-03-20T00:00:44;98570.63;;;11.35;70.89
32456;BME280;18912;43.270;27.942;2023-03-20T00:03:11;98564.72;;;11.18;71.77
32456;BME280;18912;43.270;27.942;2023-03-20T00:05:37;98566.44;;;10.92;72.50
32456;BME280;18912;43.270;27.942;2023-03-20T00:08:03;98570.81;;;10.93;72.81
32456;BME280;18912;43.270;27.942;2023-03-20T00:10:34;98556.88;;;11.37;71.24
32456;BME280;18912;43.270;27.942;2023-03-20T00:13:01;98559.13;;;10.86;72.47
32456;BME280;18912;43.270;27.942;2023-03-20T00:15:30;98559.47;;;11.10;72.29
32456;BME280;18912;43.270;27.942;2023-03-20T00:17:57;98555.19;;;11.22;71.75
32456;BME280;18912;43.270;27.942;2023-03-20T00:20:23;98552.25;;;11.24;72.12
32456;BME280;18912;43.270;27.942;2023-03-20T00:22:49;98546.16;;;11.15;71.92
32456;BME280;18912;43.270;27.942;2023-03-20T00:25:17;98549.16;;;10.93;73.59
32456;BME280;18912;43.270;27.942;2023-03-20T00:27:43;98548.28;;;11.26;71.92
32456;BME280;18912;43.270;27.942;2023-03-20T00:32:43;98550.66;;;10.68;74.67
32456;BME280;18912;43.270;27.942;2023-03-20T00:35:26;98544.94;;;10.56;75.14
32456;BME280;18912;43.270;27.942;2023-03-20T00:37:53;98552.78;;;10.72;73.97
32456;BME280;18912;43.270;27.942;2023-03-20T00:40:19;98537.19;;;11.08;72.93
32456;BME280;18912;43.270;27.942;2023-03-20T00:42:48;98546.44;;;10.59;75.09
32456;BME280;18912;43.270;27.942;2023-03-20T00:45:18;98544.69;;;10.45;76.17
32456;BME280;18912;43.270;27.942;2023-03-20T00:47:47;98530.78;;;10.26;77.32
32456;BME280;18912;43.270;27.942;2023-03-20T00:50:14;98534.91;;;10.22;77.37
32456;BME280;18912;43.270;27.942;2023-03-20T00:52:41;98528.00;;;10.13;78.16
32456;BME280;18912;43.270;27.942;2023-03-20T00:55:06;98523.31;;;9.86;78.65
32456;BME280;18912;43.270;27.942;2023-03-20T00:58:02;98526.63;;;9.82;79.15
32456;BME280;18912;43.270;27.942;2023-03-20T01:03:10;98535.25;;;9.56;79.85
32456;BME280;18912;43.270;27.942;2023-03-20T01:05:37;98536.72;;;9.37;83.12
32456;BME280;18912;43.270;27.942;2023-03-20T01:08:09;98533.94;;;10.09;79.30
32456;BME280;18912;43.270;27.942;2023-03-20T01:10:36;98523.50;;;9.64;80.26
32456;BME280;18912;43.270;27.942;2023-03-20T01:13:02;98516.38;;;10.41;77.60
32456;BME280;18912;43.270;27.942;2023-03-20T01:15:32;98518.22;;;10.40;77.63
32456;BME280;18912;43.270;27.942;2023-03-20T01:17:58;98516.00;;;10.22;77.23
32456;BME280;18912;43.270;27.942;2023-03-20T01:20:26;98516.25;;;10.06;79.71
32456;BME280;18912;43.270;27.942;2023-03-20T01:22:53;98509.03;;;10.62;77.40
32456;BME280;18912;43.270;27.942;2023-03-20T01:25:19;98527.53;;;10.31;78.18
32456;BME280;18912;43.270;27.942;2023-03-20T01:27:49;98515.63;;;10.53;77.21
32456;BME280;18912;43.270;27.942;2023-03-20T01:30:27;98509.59;;;10.23;77.95
32456;BME280;18912;43.270;27.942;2023-03-20T01:32:53;98517.38;;;10.12;79.65
32456;BME280;18912;43.270;27.942;2023-03-20T01:35:21;98516.66;;;10.24;78.02
32456;BME280;18912;43.270;27.942;2023-03-20T01:37:47;98511.28;;;9.47;81.68
32456;BME280;18912;43.270;27.942;2023-03-20T01:40:33;98508.56;;;10.52;78.01
32456;BME280;18912;43.270;27.942;2023-03-20T01:43:12;98508.47;;;9.55;81.47
32456;BME280;18912;43.270;27.942;2023-03-20T01:45:46;98511.84;;;9.99;79.24
32456;BME280;18912;43.270;27.942;2023-03-20T01:48:16;98511.41;;;9.60;81.27
32456;BME280;18912;43.270;27.942;2023-03-20T01:50:42;98506.47;;;10.05;79.28
32456;BME280;18912;43.270;27.942;2023-03-20T01:53:18;98494.03;;;9.62;80.50
32456;BME280;18912;43.270;27.942;2023-03-20T01:55:45;98495.13;;;10.10;78.84
32456;BME280;18912;43.270;27.942;2023-03-20T01:58:18;98509.47;;;10.10;78.97
32456;BME280;18912;43.270;27.942;2023-03-20T02:00:46;98501.69;;;10.01;78.79
32456;BME280;18912;43.270;27.942;2023-03-20T02:03:16;98503.34;;;9.81;80.17
32456;BME280;18912;43.270;27.942;2023-03-20T02:05:43;98491.75;;;10.08;79.53
32456;BME280;18912;43.270;27.942;2023-03-20T02:08:16;98496.25;;;10.22;78.95
32456;BME280;18912;43.270;27.942;2023-03-20T02:10:45;98495.22;;;9.81;80.13
32456;BME280;18912;43.270;27.942;2023-03-20T02:13:12;98494.34;;;9.74;80.86
32456;BME280;18912;43.270;27.942;2023-03-20T02:16:04;98501.88;;;9.57;81.35
32456;BME280;18912;43.270;27.942;2023-03-20T02:18:31;98499.00;;;9.44;82.63
32456;BME280;18912;43.270;27.942;2023-03-20T02:53:48;98463.59;;;9.54;85.17
32456;BME280;18912;43.270;27.942;2023-03-20T02:56:42;98464.53;;;9.04;89.40
32456;BME280;18912;43.270;27.942;2023-03-20T03:02:16;98463.38;;;9.70;86.05
32456;BME280;18912;43.270;27.942;2023-03-20T03:04:56;98460.03;;;9.68;85.08
32456;BME280;18912;43.270;27.942;2023-03-20T03:07:24;98456.88;;;9.85;84.54
32456;BME280;18912;43.270;27.942;2023-03-20T03:10:02;98455.78;;;9.37;86.43
32456;BME280;18912;43.270;27.942;2023-03-20T03:12:34;98445.19;;;10.27;83.20
32456;BME280;18912;43.270;27.942;2023-03-20T03:15:27;98442.63;;;9.98;84.34
32456;BME280;18912;43.270;27.942;2023-03-20T03:17:55;98444.81;;;9.88;84.86
32456;BME280;18912;43.270;27.942;2023-03-20T03:20:28;98445.13;;;9.72;85.84
32456;BME280;18912;43.270;27.942;2023-03-20T03:22:55;98454.47;;;9.33;88.43
32456;BME280;18912;43.270;27.942;2023-03-20T03:25:25;98446.69;;;9.24;87.83
32456;BME280;18912;43.270;27.942;2023-03-20T03:28:07;98441.00;;;9.33;88.88
32456;BME280;18912;43.270;27.942;2023-03-20T03:30:36;98446.06;;;9.43;88.10
32456;BME280;18912;43.270;27.942;2023-03-20T03:33:28;98443.19;;;9.66;87.48
32456;BME280;18912;43.270;27.942;2023-03-20T03:44:11;98450.09;;;9.96;84.53
32456;BME280;18912;43.270;27.942;2023-03-20T03:47:49;98454.72;;;10.02;86.29
32456;BME280;18912;43.270;27.942;2023-03-20T03:49:59;98452.03;;;9.81;86.33
32456;BME280;18912;43.270;27.942;2023-03-20T03:52:27;98467.41;;;9.80;86.83
32456;BME280;18912;43.270;27.942;2023-03-20T03:54:59;98474.34;;;9.89;85.96
32456;BME280;18912;43.270;27.942;2023-03-20T03:57:31;98476.00;;;9.90;86.56
32456;BME280;18912;43.270;27.942;2023-03-20T04:00:00;98464.56;;;10.09;85.54
32456;BME280;18912;43.270;27.942;2023-03-20T04:02:29;98463.03;;;9.58;87.70
32456;BME280;18912;43.270;27.942;2023-03-20T04:04:55;98469.00;;;9.96;87.07
32456;BME280;18912;43.270;27.942;2023-03-20T04:07:20;98465.66;;;10.15;86.47
32456;BME280;18912;43.270;27.942;2023-03-20T04:09:49;98465.38;;;10.31;84.60
32456;BME280;18912;43.270;27.942;2023-03-20T04:12:39;98452.03;;;10.57;82.53
32456;BME280;18912;43.270;27.942;2023-03-20T04:15:06;98466.09;;;10.46;84.24
32456;BME280;18912;43.270;27.942;2023-03-20T04:17:32;98478.00;;;10.03;85.23
32456;BME280;18912;43.270;27.942;2023-03-20T04:19:57;98475.72;;;10.55;83.07
32456;BME280;18912;43.270;27.942;2023-03-20T04:22:23;98475.94;;;10.94;81.02
32456;BME280;18912;43.270;27.942;2023-03-20T04:24:49;98471.97;;;10.56;82.21
32456;BME280;18912;43.270;27.942;2023-03-20T04:27:15;98468.38;;;10.77;81.97
32456;BME280;18912;43.270;27.942;2023-03-20T04:29:42;98468.69;;;10.61;83.28
32456;BME280;18912;43.270;27.942;2023-03-20T04:32:07;98462.75;;;11.25;79.77
32456;BME280;18912;43.270;27.942;2023-03-20T04:34:33;98475.72;;;10.55;82.11
32456;BME280;18912;43.270;27.942;2023-03-20T04:36:58;98469.13;;;10.64;82.02
32456;BME280;18912;43.270;27.942;2023-03-20T04:39:26;98475.94;;;10.60;82.32
32456;BME280;18912;43.270;27.942;2023-03-20T04:41:51;98476.28;;;10.44;82.82
32456;BME280;18912;43.270;27.942;2023-03-20T04:44:17;98470.09;;;10.91;81.06
32456;BME280;18912;43.270;27.942;2023-03-20T04:46:43;98476.56;;;10.07;84.09
32456;BME280;18912;43.270;27.942;2023-03-20T04:49:08;98480.38;;;10.12;85.09
32456;BME280;18912;43.270;27.942;2023-03-20T04:51:34;98479.97;;;10.37;83.75
32456;BME280;18912;43.270;27.942;2023-03-20T04:53:59;98465.28;;;9.97;84.03
32456;BME280;18912;43.270;27.942;2023-03-20T04:56:25;98475.44;;;10.44;83.87
32456;BME280;18912;43.270;27.942;2023-03-20T04:58:50;98472.78;;;10.50;82.58
32456;BME280;18912;43.270;27.942;2023-03-20T05:01:16;98480.69;;;10.86;80.93
32456;BME280;18912;43.270;27.942;2023-03-20T05:03:41;98482.38;;;10.93;80.93
32456;BME280;18912;43.270;27.942;2023-03-20T05:06:07;98482.41;;;10.59;81.98
32456;BME280;18912;43.270;27.942;2023-03-20T05:08:33;98486.09;;;10.24;83.83
32456;BME280;18912;43.270;27.942;2023-03-20T05:10:58;98487.56;;;10.54;82.53
32456;BME280;18912;43.270;27.942;2023-03-20T05:13:23;98482.88;;;10.69;81.29
32456;BME280;18912;43.270;27.942;2023-03-20T05:15:49;98486.63;;;10.13;84.49
32456;BME280;18912;43.270;27.942;2023-03-20T05:18:14;98486.53;;;10.55;81.81
32456;BME280;18912;43.270;27.942;2023-03-20T05:20:40;98498.28;;;10.75;81.19
32456;BME280;18912;43.270;27.942;2023-03-20T05:23:06;98487.03;;;10.10;83.37
32456;BME280;18912;43.270;27.942;2023-03-20T05:25:31;98497.56;;;10.60;82.21
32456;BME280;18912;43.270;27.942;2023-03-20T05:27:57;98505.44;;;10.55;82.25
32456;BME280;18912;43.270;27.942;2023-03-20T05:30:22;98506.47;;;10.26;83.93
32456;BME280;18912;43.270;27.942;2023-03-20T05:32:51;98490.91;;;10.07;84.87
32456;BME280;18912;43.270;27.942;2023-03-20T05:35:17;98494.88;;;10.60;82.32
32456;BME280;18912;43.270;27.942;2023-03-20T05:37:42;98485.41;;;10.77;81.35
32456;BME280;18912;43.270;27.942;2023-03-20T05:40:11;98497.19;;;10.35;83.71
32456;BME280;18912;43.270;27.942;2023-03-20T05:42:37;98487.66;;;10.12;84.21
32456;BME280;18912;43.270;27.942;2023-03-20T05:45:03;98481.00;;;10.70;82.73
32456;BME280;18912;43.270;27.942;2023-03-20T05:47:28;98480.78;;;10.09;84.65
32456;BME280;18912;43.270;27.942;2023-03-20T05:49:54;98478.88;;;10.31;84.05
32456;BME280;18912;43.270;27.942;2023-03-20T05:52:20;98485.41;;;10.15;83.75
32456;BME280;18912;43.270;27.942;2023-03-20T05:54:45;98491.03;;;9.78;87.12
32456;BME280;18912;43.270;27.942;2023-03-20T05:57:11;98499.47;;;9.90;86.29
32456;BME280;18912;43.270;27.942;2023-03-20T05:59:37;98495.13;;;9.89;86.61
32456;BME280;18912;43.270;27.942;2023-03-20T06:02:03;98493.22;;;10.59;83.27
32456;BME280;18912;43.270;27.942;2023-03-20T06:04:28;98489.09;;;10.70;82.77
32456;BME280;18912;43.270;27.942;2023-03-20T06:06:54;98491.06;;;10.48;82.10
32456;BME280;18912;43.270;27.942;2023-03-20T06:09:20;98503.56;;;10.28;84.31
32456;BME280;18912;43.270;27.942;2023-03-20T06:11:45;98491.13;;;10.27;83.93
32456;BME280;18912;43.270;27.942;2023-03-20T06:14:11;98495.72;;;10.61;83.69
32456;BME280;18912;43.270;27.942;2023-03-20T06:16:37;98494.56;;;10.76;82.49
32456;BME280;18912;43.270;27.942;2023-03-20T06:19:02;98492.97;;;10.88;82.19
32456;BME280;18912;43.270;27.942;2023-03-20T06:21:28;98504.41;;;10.56;83.09
32456;BME280;18912;43.270;27.942;2023-03-20T06:23:53;98501.97;;;10.61;83.08
32456;BME280;18912;43.270;27.942;2023-03-20T06:26:19;98495.63;;;9.99;85.80
32456;BME280;18912;43.270;27.942;2023-03-20T06:28:45;98502.50;;;10.50;84.83
32456;BME280;18912;43.270;27.942;2023-03-20T06:31:11;98493.59;;;10.56;83.09
32456;BME280;18912;43.270;27.942;2023-03-20T06:33:37;98500.63;;;11.25;80.45
32456;BME280;18912;43.270;27.942;2023-03-20T06:36:03;98502.66;;;11.17;79.46
32456;BME280;18912;43.270;27.942;2023-03-20T06:38:28;98501.28;;;11.34;79.57
32456;BME280;18912;43.270;27.942;2023-03-20T06:40:54;98503.88;;;11.01;80.37
32456;BME280;18912;43.270;27.942;2023-03-20T06:43:19;98505.66;;;11.35;79.63
32456;BME280;18912;43.270;27.942;2023-03-20T06:45:46;98504.09;;;11.06;80.33
32456;BME280;18912;43.270;27.942;2023-03-20T06:48:12;98496.31;;;11.38;79.46
32456;BME280;18912;43.270;27.942;2023-03-20T06:50:38;98495.94;;;11.54;78.55
32456;BME280;18912;43.270;27.942;2023-03-20T06:53:03;98502.41;;;11.53;79.17
32456;BME280;18912;43.270;27.942;2023-03-20T06:55:29;98504.44;;;11.38;78.61
32456;BME280;18912;43.270;27.942;2023-03-20T06:57:55;98508.31;;;11.69;77.70
32456;BME280;18912;43.270;27.942;2023-03-20T07:00:21;98517.34;;;11.42;79.33
32456;BME280;18912;43.270;27.942;2023-03-20T07:02:46;98515.91;;;11.46;79.11
32456;BME280;18912;43.270;27.942;2023-03-20T07:05:13;98515.34;;;11.10;79.85
32456;BME280;18912;43.270;27.942;2023-03-20T07:07:38;98514.00;;;11.40;79.21
32456;BME280;18912;43.270;27.942;2023-03-20T07:10:04;98518.31;;;10.81;82.66
32456;BME280;18912;43.270;27.942;2023-03-20T07:12:30;98515.47;;;10.95;81.96
32456;BME280;18912;43.270;27.942;2023-03-20T07:14:55;98515.97;;;11.05;81.54
32456;BME280;18912;43.270;27.942;2023-03-20T07:17:21;98515.22;;;11.31;81.19
32456;BME280;18912;43.270;27.942;2023-03-20T07:19:47;98503.97;;;11.27;81.29
32456;BME280;18912;43.270;27.942;2023-03-20T07:22:21;98512.28;;;11.73;78.36
32456;BME280;18912;43.270;27.942;2023-03-20T07:24:48;98505.84;;;11.94;77.99
32456;BME280;18912;43.270;27.942;2023-03-20T07:27:13;98509.97;;;11.70;78.51
32456;BME280;18912;43.270;27.942;2023-03-20T07:29:39;98514.28;;;11.65;79.46
32456;BME280;18912;43.270;27.942;2023-03-20T07:32:05;98514.41;;;12.04;77.35
32456;BME280;18912;43.270;27.942;2023-03-20T07:34:30;98508.16;;;12.03;75.87
32456;BME280;18912;43.270;27.942;2023-03-20T07:36:56;98517.69;;;11.80;77.67
32456;BME280;18912;43.270;27.942;2023-03-20T07:39:22;98507.31;;;12.29;75.91
32456;BME280;18912;43.270;27.942;2023-03-20T07:41:47;98521.09;;;12.21;75.96
32456;BME280;18912;43.270;27.942;2023-03-20T07:44:12;98522.09;;;11.81;77.67
32456;BME280;18912;43.270;27.942;2023-03-20T07:46:39;98510.81;;;11.71;78.60
32456;BME280;18912;43.270;27.942;2023-03-20T07:49:05;98523.00;;;12.40;74.97
32456;BME280;18912;43.270;27.942;2023-03-20T07:51:31;98520.66;;;12.50;74.92
32456;BME280;18912;43.270;27.942;2023-03-20T07:53:56;98517.97;;;12.24;75.15
32456;BME280;18912;43.270;27.942;2023-03-20T07:56:22;98519.63;;;12.45;74.10
32456;BME280;18912;43.270;27.942;2023-03-20T07:58:47;98519.19;;;11.89;76.11
32456;BME280;18912;43.270;27.942;2023-03-20T08:01:13;98519.56;;;11.66;76.46
32456;BME280;18912;43.270;27.942;2023-03-20T08:03:38;98514.38;;;11.84;76.66
32456;BME280;18912;43.270;27.942;2023-03-20T08:06:04;98515.66;;;11.88;76.76
32456;BME280;18912;43.270;27.942;2023-03-20T08:08:32;98515.47;;;12.09;75.35
32456;BME280;18912;43.270;27.942;2023-03-20T08:10:57;98518.97;;;11.97;76.03
32456;BME280;18912;43.270;27.942;2023-03-20T08:13:22;98519.81;;;11.91;75.87
32456;BME280;18912;43.270;27.942;2023-03-20T08:15:48;98531.97;;;11.61;76.08
32456;BME280;18912;43.270;27.942;2023-03-20T08:18:13;98522.88;;;11.68;76.43
32456;BME280;18912;43.270;27.942;2023-03-20T08:20:39;98531.19;;;11.67;76.82
32456;BME280;18912;43.270;27.942;2023-03-20T08:23:04;98528.16;;;12.09;74.73
32456;BME280;18912;43.270;27.942;2023-03-20T08:25:30;98520.88;;;12.16;74.57
32456;BME280;18912;43.270;27.942;2023-03-20T08:28:01;98519.91;;;11.63;76.79
32456;BME280;18912;43.270;27.942;2023-03-20T08:30:26;98526.53;;;12.08;75.29
32456;BME280;18912;43.270;27.942;2023-03-20T08:32:52;98507.09;;;12.50;72.57
32456;BME280;18912;43.270;27.942;2023-03-20T08:35:18;98519.16;;;12.80;71.57
32456;BME280;18912;43.270;27.942;2023-03-20T08:37:43;98512.94;;;12.60;72.08
32456;BME280;18912;43.270;27.942;2023-03-20T08:40:10;98517.47;;;13.12;71.05
32456;BME280;18912;43.270;27.942;2023-03-20T08:42:35;98524.00;;;12.65;72.72
32456;BME280;18912;43.270;27.942;2023-03-20T08:45:01;98517.72;;;12.71;72.04
32456;BME280;18912;43.270;27.942;2023-03-20T08:47:27;98516.88;;;12.77;71.91
32456;BME280;18912;43.270;27.942;2023-03-20T08:49:52;98522.50;;;13.08;69.34
32456;BME280;18912;43.270;27.942;2023-03-20T08:52:18;98525.06;;;13.41;68.57
32456;BME280;18912;43.270;27.942;2023-03-20T08:54:43;98522.09;;;13.56;68.45
32456;BME280;18912;43.270;27.942;2023-03-20T08:57:09;98508.28;;;13.95;67.60
32456;BME280;18912;43.270;27.942;2023-03-20T08:59:34;98521.50;;;13.85;66.78
32456;BME280;18912;43.270;27.942;2023-03-20T09:02:00;98521.34;;;14.42;63.34
32456;BME280;18912;43.270;27.942;2023-03-20T09:04:25;98523.72;;;14.01;65.06
32456;BME280;18912;43.270;27.942;2023-03-20T09:06:52;98514.25;;;14.84;60.69
32456;BME280;18912;43.270;27.942;2023-03-20T09:09:17;98521.34;;;13.80;63.97
32456;BME280;18912;43.270;27.942;2023-03-20T09:11:46;98493.59;;;14.58;61.85
32456;BME280;18912;43.270;27.942;2023-03-20T09:14:11;98510.53;;;14.36;62.17
32456;BME280;18912;43.270;27.942;2023-03-20T09:16:37;98511.34;;;14.36;61.69
32456;BME280;18912;43.270;27.942;2023-03-20T09:19:02;98510.53;;;14.60;61.16
32456;BME280;18912;43.270;27.942;2023-03-20T09:21:28;98512.38;;;15.02;60.14
32456;BME280;18912;43.270;27.942;2023-03-20T09:23:53;98516.66;;;14.98;59.92
32456;BME280;18912;43.270;27.942;2023-03-20T09:26:19;98522.91;;;15.35;58.02
32456;BME280;18912;43.270;27.942;2023-03-20T09:28:44;98516.78;;;15.22;58.37
32456;BME280;18912;43.270;27.942;2023-03-20T09:31:10;98513.88;;;14.62;60.46
32456;BME280;18912;43.270;27.942;2023-03-20T09:33:36;98507.38;;;14.39;61.30
32456;BME280;18912;43.270;27.942;2023-03-20T09:36:02;98519.38;;;15.35;57.30
32456;BME280;18912;43.270;27.942;2023-03-20T09:38:27;98509.06;;;15.37;58.03
32456;BME280;18912;43.270;27.942;2023-03-20T09:40:58;98515.22;;;15.50;57.74
32456;BME280;18912;43.270;27.942;2023-03-20T09:52:00;98499.00;;;16.56;53.57
32456;BME280;18912;43.270;27.942;2023-03-20T09:54:34;98492.38;;;16.87;53.72
32456;BME280;18912;43.270;27.942;2023-03-20T09:57:02;98486.09;;;17.37;51.20
32456;BME280;18912;43.270;27.942;2023-03-20T09:59:27;98489.72;;;17.94;49.35
32456;BME280;18912;43.270;27.942;2023-03-20T10:02:18;98492.50;;;17.54;51.75
32456;BME280;18912;43.270;27.942;2023-03-20T10:04:50;98489.47;;;17.96;50.46
32456;BME280;18912;43.270;27.942;2023-03-20T10:07:18;98485.53;;;17.24;50.61
32456;BME280;18912;43.270;27.942;2023-03-20T10:09:44;98481.72;;;17.25;51.61
32456;BME280;18912;43.270;27.942;2023-03-20T10:15:00;98475.94;;;17.61;50.97
32456;BME280;18912;43.270;27.942;2023-03-20T10:17:45;98473.56;;;17.93;49.71
32456;BME280;18912;43.270;27.942;2023-03-20T10:20:33;98464.22;;;18.22;48.77
32456;BME280;18912;43.270;27.942;2023-03-20T10:23:15;98465.22;;;17.71;51.51
32456;BME280;18912;43.270;27.942;2023-03-20T10:25:53;98478.16;;;17.76;49.82
32456;BME280;18912;43.270;27.942;2023-03-20T10:28:28;98466.41;;;17.92;49.89
32456;BME280;18912;43.270;27.942;2023-03-20T10:41:52;98460.00;;;17.18;51.15
32456;BME280;18912;43.270;27.942;2023-03-20T10:44:40;98476.16;;;16.27;53.29
32456;BME280;18912;43.270;27.942;2023-03-20T10:47:13;98477.78;;;16.81;52.32
32456;BME280;18912;43.270;27.942;2023-03-20T10:49:51;98467.88;;;17.03;52.12
32456;BME280;18912;43.270;27.942;2023-03-20T10:52:21;98466.72;;;17.39;51.69
32456;BME280;18912;43.270;27.942;2023-03-20T10:55:03;98473.97;;;16.70;52.80
32456;BME280;18912;43.270;27.942;2023-03-20T10:57:35;98462.78;;;16.60;52.33
32456;BME280;18912;43.270;27.942;2023-03-20T11:00:02;98455.88;;;17.44;51.73
32456;BME280;18912;43.270;27.942;2023-03-20T11:02:30;98454.69;;;16.42;53.44
32456;BME280;18912;43.270;27.942;2023-03-20T11:05:04;98441.19;;;16.70;52.89
32456;BME280;18912;43.270;27.942;2023-03-20T11:07:36;98443.91;;;17.05;51.93
32456;BME280;18912;43.270;27.942;2023-03-20T11:12:43;98444.69;;;17.17;51.83
32456;BME280;18912;43.270;27.942;2023-03-20T11:18:01;98441.00;;;17.63;51.09
32456;BME280;18912;43.270;27.942;2023-03-20T11:20:43;98443.06;;;17.05;51.79
32456;BME280;18912;43.270;27.942;2023-03-20T11:23:14;98444.94;;;17.04;52.74
32456;BME280;18912;43.270;27.942;2023-03-20T11:26:07;98435.38;;;16.78;53.42
32456;BME280;18912;43.270;27.942;2023-03-20T11:28:40;98430.16;;;16.42;53.56
32456;BME280;18912;43.270;27.942;2023-03-20T11:31:16;98437.16;;;16.73;52.64
32456;BME280;18912;43.270;27.942;2023-03-20T11:33:45;98422.91;;;16.36;53.88
32456;BME280;18912;43.270;27.942;2023-03-20T11:36:23;98413.88;;;16.24;54.79
32456;BME280;18912;43.270;27.942;2023-03-20T11:38:51;98422.06;;;16.36;54.93
32456;BME280;18912;43.270;27.942;2023-03-20T11:41:25;98417.56;;;16.18;55.71
32456;BME280;18912;43.270;27.942;2023-03-20T11:43:51;98426.66;;;16.01;56.32
32456;BME280;18912;43.270;27.942;2023-03-20T11:46:18;98414.44;;;15.92;55.82
32456;BME280;18912;43.270;27.942;2023-03-20T11:48:46;98419.69;;;15.75;56.89
32456;BME280;18912;43.270;27.942;2023-03-20T11:51:17;98416.16;;;15.74;56.37
32456;BME280;18912;43.270;27.942;2023-03-20T11:56:19;98404.72;;;16.19;56.70
32456;BME280;18912;43.270;27.942;2023-03-20T12:01:22;98404.25;;;16.10;56.81
32456;BME280;18912;43.270;27.942;2023-03-20T12:03:56;98407.94;;;16.04;56.54
32456;BME280;18912;43.270;27.942;2023-03-20T12:06:25;98400.88;;;15.73;58.44
32456;BME280;18912;43.270;27.942;2023-03-20T12:11:37;98399.13;;;15.02;60.18
32456;BME280;18912;43.270;27.942;2023-03-20T12:14:31;98397.53;;;14.94;59.85
32456;BME280;18912;43.270;27.942;2023-03-20T12:17:26;98389.53;;;15.47;60.70
32456;BME280;18912;43.270;27.942;2023-03-20T12:19:47;98398.09;;;15.62;59.02
32456;BME280;18912;43.270;27.942;2023-03-20T12:22:25;98371.78;;;15.26;61.64
32456;BME280;18912;43.270;27.942;2023-03-20T12:25:00;98386.69;;;15.42;59.58
32456;BME280;18912;43.270;27.942;2023-03-20T12:27:34;98378.06;;;15.27;60.69
32456;BME280;18912;43.270;27.942;2023-03-20T12:30:16;98379.22;;;15.01;61.12
32456;BME280;18912;43.270;27.942;2023-03-20T12:35:35;98378.66;;;15.29;61.20
32456;BME280;18912;43.270;27.942;2023-03-20T12:38:03;98372.56;;;15.15;61.53
32456;BME280;18912;43.270;27.942;2023-03-20T12:40:43;98375.88;;;15.17;63.62
32456;BME280;18912;43.270;27.942;2023-03-20T12:43:24;98373.25;;;15.40;60.21
32456;BME280;18912;43.270;27.942;2023-03-20T12:49:13;98358.75;;;14.98;63.04
32456;BME280;18912;43.270;27.942;2023-03-20T12:51:54;98368.38;;;14.83;63.31
32456;BME280;18912;43.270;27.942;2023-03-20T12:57:36;98348.06;;;14.97;62.67
32456;BME280;18912;43.270;27.942;2023-03-20T13:00:15;98342.38;;;14.69;61.79
32456;BME280;18912;43.270;27.942;2023-03-20T13:03:10;98340.00;;;14.90;61.50
32456;BME280;18912;43.270;27.942;2023-03-20T13:05:56;98354.69;;;14.35;63.18
32456;BME280;18912;43.270;27.942;2023-03-20T13:14:26;98350.53;;;14.87;62.64
32456;BME280;18912;43.270;27.942;2023-03-20T13:17:11;98343.88;;;14.65;64.57
32456;BME280;18912;43.270;27.942;2023-03-20T13:39:17;98319.75;;;13.71;66.08
32456;BME280;18912;43.270;27.942;2023-03-20T13:41:45;98320.63;;;14.08;65.34
32456;BME280;18912;43.270;27.942;2023-03-20T13:44:13;98322.38;;;13.78;65.79
32456;BME280;18912;43.270;27.942;2023-03-20T13:47:05;98319.19;;;14.30;64.55
32456;BME280;18912;43.270;27.942;2023-03-20T13:49:36;98321.97;;;14.42;64.29
32456;BME280;18912;43.270;27.942;2023-03-20T13:52:13;98321.00;;;13.44;65.70
32456;BME280;18912;43.270;27.942;2023-03-20T13:57:15;98307.31;;;13.82;65.91
32456;BME280;18912;43.270;27.942;2023-03-20T14:00:00;98316.31;;;14.00;66.62
32456;BME280;18912;43.270;27.942;2023-03-20T14:05:36;98318.94;;;13.40;68.18
32456;BME280;18912;43.270;27.942;2023-03-20T14:11:06;98305.53;;;13.45;68.60
32456;BME280;18912;43.270;27.942;2023-03-20T14:13:36;98311.88;;;13.32;68.31
32456;BME280;18912;43.270;27.942;2023-03-20T14:16:07;98319.50;;;13.17;68.36
32456;BME280;18912;43.270;27.942;2023-03-20T14:18:34;98302.34;;;13.23;70.01
32456;BME280;18912;43.270;27.942;2023-03-20T14:21:12;98298.41;;;13.50;69.35
32456;BME280;18912;43.270;27.942;2023-03-20T14:23:43;98307.53;;;13.56;68.36
32456;BME280;18912;43.270;27.942;2023-03-20T14:31:41;98300.88;;;13.52;67.30
32456;BME280;18912;43.270;27.942;2023-03-20T14:36:57;98299.38;;;13.56;66.98
32456;BME280;18912;43.270;27.942;2023-03-20T14:39:34;98310.47;;;13.54;67.25
32456;BME280;18912;43.270;27.942;2023-03-20T14:47:29;98300.63;;;13.60;67.31
32456;BME280;18912;43.270;27.942;2023-03-20T14:50:26;98300.66;;;13.53;67.60
32456;BME280;18912;43.270;27.942;2023-03-20T14:52:59;98300.75;;;12.71;71.60
32456;BME280;18912;43.270;27.942;2023-03-20T14:55:34;98302.34;;;13.54;68.03
32456;BME280;18912;43.270;27.942;2023-03-20T14:58:47;98303.84;;;13.19;69.20
32456;BME280;18912;43.270;27.942;2023-03-20T15:06:27;98294.53;;;13.08;71.26
32456;BME280;18912;43.270;27.942;2023-03-20T15:08:56;98291.50;;;12.85;72.67
32456;BME280;18912;43.270;27.942;2023-03-20T15:11:24;98300.88;;;12.45;74.31
32456;BME280;18912;43.270;27.942;2023-03-20T15:13:51;98285.88;;;12.36;74.48
32456;BME280;18912;43.270;27.942;2023-03-20T15:16:24;98286.94;;;12.79;73.07
32456;BME280;18912;43.270;27.942;2023-03-20T15:18:52;98290.81;;;12.52;74.56
32456;BME280;18912;43.270;27.942;2023-03-20T15:21:27;98292.19;;;13.12;72.29
32456;BME280;18912;43.270;27.942;2023-03-20T15:23:56;98292.50;;;12.47;75.02
32456;BME280;18912;43.270;27.942;2023-03-20T15:26:21;98287.19;;;13.09;72.34
32456;BME280;18912;43.270;27.942;2023-03-20T15:28:59;98298.28;;;12.06;76.15
32456;BME280;18912;43.270;27.942;2023-03-20T15:31:34;98291.22;;;11.92;78.10